createdAt,value
2022-12-11T13:03:57.708Z,41.38
2022-12-11T13:08:05.551Z,42.10
2022-12-11T13:12:17.353Z,40.90
2022-12-11T13:16:19.071Z,46.17
2022-12-11T13:20:29.240Z,45.28
2022-12-11T13:24:33.602Z,39.80
2022-12-11T13:28:38.336Z,38.08
2022-12-11T13:32:42.454Z,39.00
2022-12-11T13:36:53.526Z,39.50
2022-12-11T13:40:56.836Z,33.88
2022-12-11T13:45:00.074Z,41.03
2022-12-11T13:49:04.986Z,34.20
2022-12-11T13:53:06.808Z,31.40
2022-12-11T13:57:08.428Z,37.15
2022-12-11T14:01:15.249Z,35.75
2022-12-11T14:05:17.705Z,27.95
2022-12-11T14:09:24.830Z,29.88
2022-12-11T14:13:33.281Z,31.98
2022-12-11T14:17:35.478Z,31.10
2022-12-11T14:21:37.443Z,25.30
2022-12-11T14:25:39.275Z,28.60
2022-12-11T14:29:40.959Z,27.92
2022-12-11T14:33:51.213Z,23.20
2022-12-11T14:37:54.460Z,30.90
2022-12-11T14:42:04.749Z,26.65
2022-12-11T14:46:16.766Z,30.73
2022-12-11T14:50:23.741Z,33.40
2022-12-11T14:54:37.937Z,29.75
2022-12-11T14:58:44.804Z,28.58
2022-12-11T15:03:07.702Z,24.23
2022-12-11T15:07:22.259Z,24.20
2022-12-11T15:11:33.383Z,22.25
2022-12-11T15:15:45.093Z,18.50
2022-12-11T15:19:51.257Z,23.55
2022-12-11T15:23:55.750Z,19.73
2022-12-11T15:28:00.693Z,17.33
2022-12-11T15:32:08.512Z,16.90
2022-12-11T15:36:39.935Z,20.98
2022-12-11T15:40:41.636Z,17.83
2022-12-11T15:44:43.473Z,20.35
2022-12-11T15:48:45.217Z,16.10
2022-12-11T15:52:47.434Z,20.40
2022-12-11T15:56:49.163Z,22.20
2022-12-11T16:00:51.592Z,26.80
2022-12-11T16:04:54.115Z,24.58
2022-12-11T16:08:56.035Z,27.83
2022-12-11T16:12:59.831Z,25.88
2022-12-11T16:17:01.600Z,30.85
2022-12-11T16:21:06.512Z,27.70
2022-12-11T16:25:08.481Z,32.17
2022-12-11T16:29:11.576Z,32.15
2022-12-11T16:33:13.898Z,31.05
2022-12-11T16:37:15.744Z,28.67
2022-12-11T16:41:17.474Z,33.63
2022-12-11T16:45:22.289Z,32.80
2022-12-11T16:49:24.162Z,30.92
2022-12-11T16:53:26.150Z,31.80
2022-12-11T16:57:28.312Z,36.65
2022-12-11T17:01:30.183Z,31.77
2022-12-11T17:05:31.962Z,31.35
2022-12-11T17:09:35.267Z,32.08
2022-12-11T17:13:37.397Z,27.67
2022-12-11T17:17:39.074Z,29.23
2022-12-11T17:21:40.833Z,27.27
2022-12-11T17:25:44.764Z,30.80
2022-12-11T17:29:49.519Z,28.25
2022-12-11T17:33:53.812Z,32.88
2022-12-11T17:37:55.569Z,32.13
2022-12-11T17:41:57.270Z,35.72
2022-12-11T17:45:58.994Z,34.53
2022-12-11T17:50:01.037Z,32.17
2022-12-11T17:54:02.746Z,36.85
2022-12-11T17:58:05.590Z,30.05
2022-12-11T18:02:07.300Z,29.33
2022-12-11T18:06:12.875Z,28.85
2022-12-11T18:10:14.519Z,30.23
2022-12-11T18:14:17.623Z,23.27
2022-12-11T18:18:19.487Z,32.33
2022-12-11T18:22:21.306Z,26.95
2022-12-11T18:26:23.646Z,24.33
2022-12-11T18:30:26.244Z,27.85
2022-12-11T18:34:28.204Z,22.50
2022-12-11T18:38:30.123Z,17.70
2022-12-11T18:42:33.449Z,19.85
2022-12-11T18:46:35.612Z,26.85
2022-12-11T18:50:37.443Z,28.65
2022-12-11T18:54:39.173Z,26.92
2022-12-11T18:58:41.077Z,33.08
2022-12-11T19:02:42.943Z,24.73
2022-12-11T19:06:44.684Z,25.85
2022-12-11T19:10:47.626Z,26.92
2022-12-11T19:14:49.381Z,31.55
2022-12-11T19:18:51.644Z,30.08
2022-12-11T19:22:53.377Z,27.52
2022-12-11T19:26:55.083Z,31.65
2022-12-11T19:30:56.854Z,35.55
2022-12-11T19:34:58.624Z,34.60
2022-12-11T19:39:02.152Z,26.63
2022-12-11T19:43:05.259Z,31.08
2022-12-11T19:47:07.203Z,30.13
2022-12-11T19:51:15.206Z,25.83
2022-12-11T19:55:16.965Z,28.58
2022-12-11T19:59:18.849Z,32.10
2022-12-11T20:03:20.789Z,26.13
2022-12-11T20:07:27.452Z,27.65
2022-12-11T20:11:33.350Z,29.70
2022-12-11T20:15:39.387Z,27.23
2022-12-11T20:19:41.633Z,30.35
2022-12-11T20:23:44.220Z,32.53
2022-12-11T20:27:46.275Z,27.35
2022-12-11T20:31:50.600Z,28.15
2022-12-11T20:35:52.345Z,32.85
2022-12-11T20:39:54.046Z,34.00
2022-12-11T20:43:55.764Z,29.52
2022-12-11T20:47:57.426Z,29.75
2022-12-11T20:51:59.857Z,33.47
2022-12-11T20:56:02.005Z,30.20
2022-12-11T21:00:06.013Z,31.92
2022-12-11T21:04:07.977Z,32.17
2022-12-11T21:08:10.349Z,25.50
2022-12-11T21:12:12.082Z,23.38
2022-12-11T21:16:13.902Z,24.23
2022-12-11T21:20:15.607Z,22.35
2022-12-11T21:24:22.863Z,21.70
2022-12-11T21:28:24.629Z,25.17
2022-12-11T21:32:27.527Z,30.85
2022-12-11T21:36:31.813Z,23.98
2022-12-11T21:40:34.279Z,26.50
2022-12-11T21:48:57.734Z,22.77
2022-12-11T21:52:59.477Z,26.23
2022-12-11T21:57:01.449Z,20.38
2022-12-11T22:01:04.340Z,22.85
2022-12-11T22:05:06.779Z,30.80
2022-12-11T22:09:09.031Z,27.75
2022-12-11T22:13:10.848Z,21.25
2022-12-11T22:17:12.538Z,21.73
2022-12-11T22:21:15.273Z,23.02
2022-12-11T22:25:16.969Z,26.65
2022-12-11T22:29:18.770Z,26.75
2022-12-11T22:33:20.661Z,25.58
2022-12-11T22:37:22.378Z,27.58
2022-12-11T22:41:27.452Z,20.63
2022-12-11T22:45:29.189Z,22.08
2022-12-11T22:49:31.000Z,28.35
2022-12-11T22:53:32.954Z,21.13
2022-12-11T22:57:36.428Z,24.17
2022-12-11T23:01:38.158Z,22.63
2022-12-11T23:05:41.095Z,23.70
2022-12-11T23:09:42.838Z,21.83
2022-12-11T23:13:44.728Z,23.00
2022-12-11T23:17:46.412Z,19.45
2022-12-11T23:21:48.422Z,24.15
2022-12-11T23:25:51.086Z,20.77
2022-12-11T23:29:52.767Z,26.13
2022-12-11T23:33:54.502Z,21.90
2022-12-11T23:37:56.352Z,18.98
2022-12-11T23:41:58.292Z,19.85
2022-12-11T23:46:00.187Z,23.92
2022-12-11T23:50:01.959Z,23.95
2022-12-11T23:54:03.704Z,21.83
2022-12-11T23:58:05.564Z,20.40
